sensor_id;sensor_type;location;lat;lon;timestamp;temperature;humidity
22442;DHT22;11388;54.456;9.752;2022-12-18T00:01:20;-3.50;99.90
22442;DHT22;11388;54.456;9.752;2022-12-18T00:03:46;-3.40;99.90
22442;DHT22;11388;54.456;9.752;2022-12-18T00:06:12;-3.40;99.90
22442;DHT22;11388;54.456;9.752;2022-12-18T00:08:39;-3.40;99.90
22442;DHT22;11388;54.456;9.752;2022-12-18T00:11:06;-3.40;99.90
22442;DHT22;11388;54.456;9.752;2022-12-18T00:13:32;-3.40;99.90
22442;DHT22;11388;54.456;9.752;2022-12-18T00:16:07;-3.50;99.90
22442;DHT22;11388;54.456;9.752;2022-12-18T00:18:33;-3.50;99.90
22442;DHT22;11388;54.456;9.752;2022-12-18T00:21:00;-3.50;99.90
22442;DHT22;11388;54.456;9.752;2022-12-18T00:23:27;-3.60;99.90
22442;DHT22;11388;54.456;9.752;2022-12-18T00:25:53;-3.70;99.90
22442;DHT22;11388;54.456;9.752;2022-12-18T00:28:19;-3.70;99.90
22442;DHT22;11388;54.456;9.752;2022-12-18T00:30:44;-3.60;99.90
22442;DHT22;11388;54.456;9.752;2022-12-18T00:33:10;-3.70;99.90
22442;DHT22;11388;54.456;9.752;2022-12-18T00:35:36;-3.60;99.90
22442;DHT22;11388;54.456;9.752;2022-12-18T00:38:01;-3.60;99.90
22442;DHT22;11388;54.456;9.752;2022-12-18T00:40:27;-3.60;99.90
22442;DHT22;11388;54.456;9.752;2022-12-18T00:42:52;-3.60;99.90
22442;DHT22;11388;54.456;9.752;2022-12-18T00:45:25;-3.60;99.90
22442;DHT22;11388;54.456;9.752;2022-12-18T00:47:51;-3.60;99.90
22442;DHT22;11388;54.456;9.752;2022-12-18T00:50:18;-3.60;99.90
22442;DHT22;11388;54.456;9.752;2022-12-18T00:52:43;-3.60;99.90
22442;DHT22;11388;54.456;9.752;2022-12-18T00:55:10;-3.60;99.90
22442;DHT22;11388;54.456;9.752;2022-12-18T00:57:35;-3.60;99.90
22442;DHT22;11388;54.456;9.752;2022-12-18T01:00:02;-3.60;99.90
22442;DHT22;11388;54.456;9.752;2022-12-18T01:02:27;-3.70;99.90
22442;DHT22;11388;54.456;9.752;2022-12-18T01:04:55;-3.60;99.90
22442;DHT22;11388;54.456;9.752;2022-12-18T01:07:21;-3.60;99.90
22442;DHT22;11388;54.456;9.752;2022-12-18T01:09:47;-3.50;99.90
22442;DHT22;11388;54.456;9.752;2022-12-18T01:12:12;-3.50;99.90
22442;DHT22;11388;54.456;9.752;2022-12-18T01:14:38;-3.50;99.90
22442;DHT22;11388;54.456;9.752;2022-12-18T01:17:04;-3.50;99.90
22442;DHT22;11388;54.456;9.752;2022-12-18T01:19:30;-3.50;99.90
22442;DHT22;11388;54.456;9.752;2022-12-18T01:21:56;-3.40;99.90
22442;DHT22;11388;54.456;9.752;2022-12-18T01:24:21;-3.40;99.90
22442;DHT22;11388;54.456;9.752;2022-12-18T01:26:47;-3.50;99.90
22442;DHT22;11388;54.456;9.752;2022-12-18T01:29:13;-3.50;99.90
22442;DHT22;11388;54.456;9.752;2022-12-18T01:31:38;-3.50;99.90
22442;DHT22;11388;54.456;9.752;2022-12-18T01:34:05;-3.50;99.90
22442;DHT22;11388;54.456;9.752;2022-12-18T01:36:33;-3.60;99.90
22442;DHT22;11388;54.456;9.752;2022-12-18T01:39:01;-3.60;99.90
22442;DHT22;11388;54.456;9.752;2022-12-18T01:41:29;-3.60;99.90
22442;DHT22;11388;54.456;9.752;2022-12-18T01:49:49;-3.70;99.90
22442;DHT22;11388;54.456;9.752;2022-12-18T01:52:15;-3.70;99.90
22442;DHT22;11388;54.456;9.752;2022-12-18T01:54:42;-3.60;99.90
22442;DHT22;11388;54.456;9.752;2022-12-18T01:57:09;-3.50;99.90
22442;DHT22;11388;54.456;9.752;2022-12-18T01:59:35;-3.50;99.90
22442;DHT22;11388;54.456;9.752;2022-12-18T02:02:01;-3.50;99.90
22442;DHT22;11388;54.456;9.752;2022-12-18T02:04:28;-3.60;99.90
22442;DHT22;11388;54.456;9.752;2022-12-18T02:07:20;-3.60;99.90
22442;DHT22;11388;54.456;9.752;2022-12-18T02:12:23;-3.70;99.90
22442;DHT22;11388;54.456;9.752;2022-12-18T02:15:10;-3.70;99.90
22442;DHT22;11388;54.456;9.752;2022-12-18T02:17:43;-3.80;99.90
22442;DHT22;11388;54.456;9.752;2022-12-18T02:20:47;-3.70;99.90
22442;DHT22;11388;54.456;9.752;2022-12-18T02:28:51;-3.80;99.90
22442;DHT22;11388;54.456;9.752;2022-12-18T02:31:22;-3.80;99.90
22442;DHT22;11388;54.456;9.752;2022-12-18T02:33:50;-3.80;99.90
22442;DHT22;11388;54.456;9.752;2022-12-18T02:36:19;-3.80;99.90
22442;DHT22;11388;54.456;9.752;2022-12-18T02:38:47;-3.80;99.90
22442;DHT22;11388;54.456;9.752;2022-12-18T02:41:14;-3.80;99.90
22442;DHT22;11388;54.456;9.752;2022-12-18T02:43:50;-3.80;99.90
22442;DHT22;11388;54.456;9.752;2022-12-18T02:46:38;-3.80;99.90
22442;DHT22;11388;54.456;9.752;2022-12-18T02:54:37;-3.80;99.90
22442;DHT22;11388;54.456;9.752;2022-12-18T02:57:34;-3.80;99.90
22442;DHT22;11388;54.456;9.752;2022-12-18T03:00:06;-3.80;99.90
22442;DHT22;11388;54.456;9.752;2022-12-18T03:02:41;-3.80;99.90
22442;DHT22;11388;54.456;9.752;2022-12-18T03:05:24;-3.80;99.90
22442;DHT22;11388;54.456;9.752;2022-12-18T03:07:58;-3.90;99.90
22442;DHT22;11388;54.456;9.752;2022-12-18T03:10:32;-3.90;99.90
22442;DHT22;11388;54.456;9.752;2022-12-18T03:13:10;-3.80;99.90
22442;DHT22;11388;54.456;9.752;2022-12-18T03:15:45;-3.80;99.90
22442;DHT22;11388;54.456;9.752;2022-12-18T03:18:20;-3.80;99.90
22442;DHT22;11388;54.456;9.752;2022-12-18T03:20:48;-3.70;99.90
22442;DHT22;11388;54.456;9.752;2022-12-18T03:23:18;-3.80;99.90
22442;DHT22;11388;54.456;9.752;2022-12-18T03:25:46;-3.80;99.90
22442;DHT22;11388;54.456;9.752;2022-12-18T03:28:16;-3.90;99.90
22442;DHT22;11388;54.456;9.752;2022-12-18T03:30:46;-3.80;99.90
22442;DHT22;11388;54.456;9.752;2022-12-18T03:33:25;-3.80;99.90
22442;DHT22;11388;54.456;9.752;2022-12-18T03:35:52;-3.90;99.90
22442;DHT22;11388;54.456;9.752;2022-12-18T03:38:18;-3.90;99.90
22442;DHT22;11388;54.456;9.752;2022-12-18T03:40:47;-3.80;99.90
22442;DHT22;11388;54.456;9.752;2022-12-18T03:43:25;-3.90;99.90
22442;DHT22;11388;54.456;9.752;2022-12-18T03:46:07;-3.90;99.90
22442;DHT22;11388;54.456;9.752;2022-12-18T03:48:38;-3.90;99.90
22442;DHT22;11388;54.456;9.752;2022-12-18T03:54:03;-3.90;99.90
22442;DHT22;11388;54.456;9.752;2022-12-18T03:56:37;-3.90;99.90
22442;DHT22;11388;54.456;9.752;2022-12-18T03:59:04;-3.90;99.90
22442;DHT22;11388;54.456;9.752;2022-12-18T04:01:38;-3.90;99.90
22442;DHT22;11388;54.456;9.752;2022-12-18T04:04:06;-3.90;99.90
22442;DHT22;11388;54.456;9.752;2022-12-18T04:06:36;-4.00;99.90
22442;DHT22;11388;54.456;9.752;2022-12-18T04:09:02;-3.90;99.90
22442;DHT22;11388;54.456;9.752;2022-12-18T04:11:29;-3.90;99.90
22442;DHT22;11388;54.456;9.752;2022-12-18T04:13:58;-3.90;99.90
22442;DHT22;11388;54.456;9.752;2022-12-18T04:16:25;-3.90;99.90
22442;DHT22;11388;54.456;9.752;2022-12-18T04:18:51;-3.90;99.90
22442;DHT22;11388;54.456;9.752;2022-12-18T04:21:17;-3.80;99.90
22442;DHT22;11388;54.456;9.752;2022-12-18T04:23:42;-3.80;99.90
22442;DHT22;11388;54.456;9.752;2022-12-18T04:26:08;-3.80;99.90
22442;DHT22;11388;54.456;9.752;2022-12-18T04:28:34;-3.80;99.90
22442;DHT22;11388;54.456;9.752;2022-12-18T04:30:59;-3.80;99.90
22442;DHT22;11388;54.456;9.752;2022-12-18T04:33:25;-3.80;99.90
22442;DHT22;11388;54.456;9.752;2022-12-18T04:35:51;-3.80;99.90
22442;DHT22;11388;54.456;9.752;2022-12-18T04:38:16;-3.90;99.90
22442;DHT22;11388;54.456;9.752;2022-12-18T04:40:45;-3.90;99.90
22442;DHT22;11388;54.456;9.752;2022-12-18T04:43:11;-3.90;99.90
22442;DHT22;11388;54.456;9.752;2022-12-18T04:45:36;-3.90;99.90
22442;DHT22;11388;54.456;9.752;2022-12-18T04:48:02;-3.90;99.90
22442;DHT22;11388;54.456;9.752;2022-12-18T04:50:29;-3.80;99.90
22442;DHT22;11388;54.456;9.752;2022-12-18T04:52:55;-3.80;99.90
22442;DHT22;11388;54.456;9.752;2022-12-18T04:55:20;-3.90;99.90
22442;DHT22;11388;54.456;9.752;2022-12-18T04:57:46;-3.90;99.90
22442;DHT22;11388;54.456;9.752;2022-12-18T05:00:12;-3.80;99.90
22442;DHT22;11388;54.456;9.752;2022-12-18T05:02:38;-3.90;99.90
22442;DHT22;11388;54.456;9.752;2022-12-18T05:05:04;-3.80;99.90
22442;DHT22;11388;54.456;9.752;2022-12-18T05:07:30;-3.80;99.90
22442;DHT22;11388;54.456;9.752;2022-12-18T05:09:56;-3.90;99.90
22442;DHT22;11388;54.456;9.752;2022-12-18T05:12:24;-3.90;99.90
22442;DHT22;11388;54.456;9.752;2022-12-18T05:14:50;-4.00;99.90
22442;DHT22;11388;54.456;9.752;2022-12-18T05:17:19;-4.00;99.90
22442;DHT22;11388;54.456;9.752;2022-12-18T05:19:56;-4.00;99.90
22442;DHT22;11388;54.456;9.752;2022-12-18T05:23:08;-4.00;99.90
22442;DHT22;11388;54.456;9.752;2022-12-18T05:25:34;-4.00;99.90
22442;DHT22;11388;54.456;9.752;2022-12-18T05:37:29;-3.80;99.90
22442;DHT22;11388;54.456;9.752;2022-12-18T05:39:55;-3.90;99.90
22442;DHT22;11388;54.456;9.752;2022-12-18T05:42:21;-3.90;99.90
22442;DHT22;11388;54.456;9.752;2022-12-18T05:47:54;-3.90;99.90
22442;DHT22;11388;54.456;9.752;2022-12-18T05:50:20;-3.90;99.90
22442;DHT22;11388;54.456;9.752;2022-12-18T05:52:46;-3.90;99.90
22442;DHT22;11388;54.456;9.752;2022-12-18T05:55:24;-3.90;99.90
22442;DHT22;11388;54.456;9.752;2022-12-18T05:57:57;-4.00;99.90
22442;DHT22;11388;54.456;9.752;2022-12-18T06:00:26;-4.00;99.90
22442;DHT22;11388;54.456;9.752;2022-12-18T06:02:52;-4.00;99.90
22442;DHT22;11388;54.456;9.752;2022-12-18T06:05:17;-4.10;99.90
22442;DHT22;11388;54.456;9.752;2022-12-18T06:07:49;-4.10;99.90
22442;DHT22;11388;54.456;9.752;2022-12-18T06:10:15;-4.10;99.90
22442;DHT22;11388;54.456;9.752;2022-12-18T06:12:40;-4.10;99.90
22442;DHT22;11388;54.456;9.752;2022-12-18T06:15:07;-4.00;99.90
22442;DHT22;11388;54.456;9.752;2022-12-18T06:17:42;-4.10;99.90
22442;DHT22;11388;54.456;9.752;2022-12-18T06:20:08;-4.10;99.90
22442;DHT22;11388;54.456;9.752;2022-12-18T06:22:34;-4.00;99.90
22442;DHT22;11388;54.456;9.752;2022-12-18T06:25:03;-3.90;99.90
22442;DHT22;11388;54.456;9.752;2022-12-18T06:27:28;-4.00;99.90
22442;DHT22;11388;54.456;9.752;2022-12-18T06:29:54;-4.00;99.90
22442;DHT22;11388;54.456;9.752;2022-12-18T06:32:20;-4.00;99.90
22442;DHT22;11388;54.456;9.752;2022-12-18T06:34:46;-3.90;99.90
22442;DHT22;11388;54.456;9.752;2022-12-18T06:37:11;-4.00;99.90
22442;DHT22;11388;54.456;9.752;2022-12-18T06:39:40;-4.10;99.90
22442;DHT22;11388;54.456;9.752;2022-12-18T06:42:05;-4.00;99.90
22442;DHT22;11388;54.456;9.752;2022-12-18T06:44:31;-4.00;99.90
22442;DHT22;11388;54.456;9.752;2022-12-18T06:46:57;-4.10;99.90
22442;DHT22;11388;54.456;9.752;2022-12-18T06:49:23;-4.10;99.90
22442;DHT22;11388;54.456;9.752;2022-12-18T06:51:48;-4.20;99.90
22442;DHT22;11388;54.456;9.752;2022-12-18T06:54:14;-4.20;99.90
22442;DHT22;11388;54.456;9.752;2022-12-18T06:56:40;-4.20;99.90
22442;DHT22;11388;54.456;9.752;2022-12-18T06:59:13;-4.10;99.90
22442;DHT22;11388;54.456;9.752;2022-12-18T07:01:40;-4.20;99.90
22442;DHT22;11388;54.456;9.752;2022-12-18T07:04:05;-4.20;99.90
22442;DHT22;11388;54.456;9.752;2022-12-18T07:06:31;-4.20;99.90
22442;DHT22;11388;54.456;9.752;2022-12-18T07:08:57;-4.30;99.90
22442;DHT22;11388;54.456;9.752;2022-12-18T07:11:26;-4.30;99.90
22442;DHT22;11388;54.456;9.752;2022-12-18T07:13:53;-4.20;99.90
22442;DHT22;11388;54.456;9.752;2022-12-18T07:16:22;-4.20;99.90
22442;DHT22;11388;54.456;9.752;2022-12-18T07:18:47;-4.20;99.90
22442;DHT22;11388;54.456;9.752;2022-12-18T07:21:15;-4.20;99.90
22442;DHT22;11388;54.456;9.752;2022-12-18T07:23:41;-4.20;99.90
22442;DHT22;11388;54.456;9.752;2022-12-18T07:26:10;-4.30;99.90
22442;DHT22;11388;54.456;9.752;2022-12-18T07:28:38;-4.30;99.90
22442;DHT22;11388;54.456;9.752;2022-12-18T07:31:04;-4.30;99.90
22442;DHT22;11388;54.456;9.752;2022-12-18T07:33:32;-4.30;99.90
22442;DHT22;11388;54.456;9.752;2022-12-18T07:36:03;-4.30;99.90
22442;DHT22;11388;54.456;9.752;2022-12-18T07:38:30;-4.30;99.90
22442;DHT22;11388;54.456;9.752;2022-12-18T07:41:10;-4.30;99.90
22442;DHT22;11388;54.456;9.752;2022-12-18T07:43:36;-4.30;99.90
22442;DHT22;11388;54.456;9.752;2022-12-18T07:46:03;-4.30;99.90
22442;DHT22;11388;54.456;9.752;2022-12-18T07:48:29;-4.30;99.90
22442;DHT22;11388;54.456;9.752;2022-12-18T07:50:59;-4.30;99.90
22442;DHT22;11388;54.456;9.752;2022-12-18T07:53:24;-4.40;99.90
22442;DHT22;11388;54.456;9.752;2022-12-18T07:55:55;-4.40;99.90
22442;DHT22;11388;54.456;9.752;2022-12-18T07:58:21;-4.40;99.90
22442;DHT22;11388;54.456;9.752;2022-12-18T08:00:47;-4.40;99.90
22442;DHT22;11388;54.456;9.752;2022-12-18T08:03:13;-4.50;99.90
22442;DHT22;11388;54.456;9.752;2022-12-18T08:05:39;-4.40;99.90
22442;DHT22;11388;54.456;9.752;2022-12-18T08:08:05;-4.40;99.90
22442;DHT22;11388;54.456;9.752;2022-12-18T08:10:30;-4.50;99.90
22442;DHT22;11388;54.456;9.752;2022-12-18T08:12:59;-4.50;99.90
22442;DHT22;11388;54.456;9.752;2022-12-18T08:15:25;-4.50;99.90
22442;DHT22;11388;54.456;9.752;2022-12-18T08:17:50;-4.50;99.90
22442;DHT22;11388;54.456;9.752;2022-12-18T08:20:16;-4.40;99.90
22442;DHT22;11388;54.456;9.752;2022-12-18T08:22:44;-4.40;99.90
22442;DHT22;11388;54.456;9.752;2022-12-18T08:25:10;-4.40;99.90
22442;DHT22;11388;54.456;9.752;2022-12-18T08:27:39;-4.30;99.90
22442;DHT22;11388;54.456;9.752;2022-12-18T08:30:05;-4.30;99.90
22442;DHT22;11388;54.456;9.752;2022-12-18T08:32:31;-4.30;99.90
22442;DHT22;11388;54.456;9.752;2022-12-18T08:34:58;-4.30;99.90
22442;DHT22;11388;54.456;9.752;2022-12-18T08:37:24;-4.20;99.90
22442;DHT22;11388;54.456;9.752;2022-12-18T08:39:50;-4.20;99.90
22442;DHT22;11388;54.456;9.752;2022-12-18T08:42:16;-4.20;99.90
22442;DHT22;11388;54.456;9.752;2022-12-18T08:45:00;-4.10;99.90
22442;DHT22;11388;54.456;9.752;2022-12-18T08:47:25;-4.10;99.90
22442;DHT22;11388;54.456;9.752;2022-12-18T08:49:51;-4.00;99.90
22442;DHT22;11388;54.456;9.752;2022-12-18T08:52:17;-3.90;99.90
22442;DHT22;11388;54.456;9.752;2022-12-18T08:54:42;-4.00;99.90
22442;DHT22;11388;54.456;9.752;2022-12-18T08:57:08;-4.00;99.90
22442;DHT22;11388;54.456;9.752;2022-12-18T08:59:34;-3.90;99.90
22442;DHT22;11388;54.456;9.752;2022-12-18T09:01:59;-3.90;99.90
22442;DHT22;11388;54.456;9.752;2022-12-18T09:04:25;-3.90;99.90
22442;DHT22;11388;54.456;9.752;2022-12-18T09:06:51;-3.90;99.90
22442;DHT22;11388;54.456;9.752;2022-12-18T09:09:16;-3.90;99.90
22442;DHT22;11388;54.456;9.752;2022-12-18T09:11:42;-3.90;99.90
22442;DHT22;11388;54.456;9.752;2022-12-18T09:14:09;-3.80;99.90
22442;DHT22;11388;54.456;9.752;2022-12-18T09:16:35;-3.80;99.90
22442;DHT22;11388;54.456;9.752;2022-12-18T09:19:03;-3.80;99.90
22442;DHT22;11388;54.456;9.752;2022-12-18T09:21:31;-3.90;99.90
22442;DHT22;11388;54.456;9.752;2022-12-18T09:23:57;-3.90;99.90
22442;DHT22;11388;54.456;9.752;2022-12-18T09:26:24;-3.80;99.90
22442;DHT22;11388;54.456;9.752;2022-12-18T09:28:50;-3.70;99.90
22442;DHT22;11388;54.456;9.752;2022-12-18T09:31:17;-3.80;99.90
22442;DHT22;11388;54.456;9.752;2022-12-18T09:33:43;-3.80;99.90
22442;DHT22;11388;54.456;9.752;2022-12-18T09:36:14;-3.80;99.90
22442;DHT22;11388;54.456;9.752;2022-12-18T09:38:40;-3.80;99.90
22442;DHT22;11388;54.456;9.752;2022-12-18T09:41:40;-3.80;99.90
22442;DHT22;11388;54.456;9.752;2022-12-18T09:44:17;-3.70;99.90
22442;DHT22;11388;54.456;9.752;2022-12-18T09:49:39;-3.50;99.90
22442;DHT22;11388;54.456;9.752;2022-12-18T09:52:30;-3.50;99.90
22442;DHT22;11388;54.456;9.752;2022-12-18T09:55:08;-3.50;99.90
22442;DHT22;11388;54.456;9.752;2022-12-18T09:57:35;-3.40;99.90
22442;DHT22;11388;54.456;9.752;2022-12-18T10:00:11;-3.40;99.90
22442;DHT22;11388;54.456;9.752;2022-12-18T10:02:40;-3.40;99.90
22442;DHT22;11388;54.456;9.752;2022-12-18T10:05:15;-3.30;99.90
22442;DHT22;11388;54.456;9.752;2022-12-18T10:08:17;-3.30;99.90
22442;DHT22;11388;54.456;9.752;2022-12-18T10:10:50;-3.30;99.90
22442;DHT22;11388;54.456;9.752;2022-12-18T10:21:10;-3.10;99.90
22442;DHT22;11388;54.456;9.752;2022-12-18T10:23:42;-3.20;99.90
22442;DHT22;11388;54.456;9.752;2022-12-18T10:26:11;-3.20;99.90
22442;DHT22;11388;54.456;9.752;2022-12-18T10:28:39;-3.20;99.90
22442;DHT22;11388;54.456;9.752;2022-12-18T10:31:15;-3.10;99.90
22442;DHT22;11388;54.456;9.752;2022-12-18T10:33:42;-2.90;99.90
22442;DHT22;11388;54.456;9.752;2022-12-18T10:36:09;-2.90;99.90
22442;DHT22;11388;54.456;9.752;2022-12-18T10:38:34;-3.10;99.90
22442;DHT22;11388;54.456;9.752;2022-12-18T10:41:27;-3.30;99.90
22442;DHT22;11388;54.456;9.752;2022-12-18T10:44:12;-3.20;99.90
22442;DHT22;11388;54.456;9.752;2022-12-18T10:46:40;-3.20;99.90
22442;DHT22;11388;54.456;9.752;2022-12-18T10:49:22;-3.10;99.90
22442;DHT22;11388;54.456;9.752;2022-12-18T10:51:49;-3.20;99.90
22442;DHT22;11388;54.456;9.752;2022-12-18T10:54:23;-3.10;99.90
22442;DHT22;11388;54.456;9.752;2022-12-18T10:56:49;-3.10;99.90
22442;DHT22;11388;54.456;9.752;2022-12-18T10:59:18;-3.00;99.90
22442;DHT22;11388;54.456;9.752;2022-12-18T11:01:51;-2.90;99.90
22442;DHT22;11388;54.456;9.752;2022-12-18T11:04:27;-2.80;99.90
22442;DHT22;11388;54.456;9.752;2022-12-18T11:07:07;-2.70;99.90
22442;DHT22;11388;54.456;9.752;2022-12-18T11:09:35;-2.80;99.90
22442;DHT22;11388;54.456;9.752;2022-12-18T11:12:15;-2.70;99.90
22442;DHT22;11388;54.456;9.752;2022-12-18T11:17:51;-2.80;99.90
22442;DHT22;11388;54.456;9.752;2022-12-18T11:20:31;-2.50;99.90
22442;DHT22;11388;54.456;9.752;2022-12-18T11:23:03;-2.40;99.90
22442;DHT22;11388;54.456;9.752;2022-12-18T11:25:30;-2.30;99.90
22442;DHT22;11388;54.456;9.752;2022-12-18T11:28:03;-2.30;99.90
22442;DHT22;11388;54.456;9.752;2022-12-18T11:30:37;-2.30;99.90
22442;DHT22;11388;54.456;9.752;2022-12-18T11:33:13;-2.20;99.90
22442;DHT22;11388;54.456;9.752;2022-12-18T11:35:55;-2.20;99.90
22442;DHT22;11388;54.456;9.752;2022-12-18T11:38:38;-2.20;99.90
22442;DHT22;11388;54.456;9.752;2022-12-18T11:41:20;-2.30;99.90
22442;DHT22;11388;54.456;9.752;2022-12-18T11:44:18;-2.30;99.90
22442;DHT22;11388;54.456;9.752;2022-12-18T11:47:09;-2.30;99.90
22442;DHT22;11388;54.456;9.752;2022-12-18T11:49:36;-2.20;99.90
22442;DHT22;11388;54.456;9.752;2022-12-18T11:52:09;-2.00;99.90
22442;DHT22;11388;54.456;9.752;2022-12-18T11:54:35;-1.90;99.90
22442;DHT22;11388;54.456;9.752;2022-12-18T11:57:04;-1.80;99.90
22442;DHT22;11388;54.456;9.752;2022-12-18T12:07:51;-1.70;99.90
22442;DHT22;11388;54.456;9.752;2022-12-18T12:10:53;-1.80;99.90
22442;DHT22;11388;54.456;9.752;2022-12-18T12:16:25;-2.00;99.90
22442;DHT22;11388;54.456;9.752;2022-12-18T12:19:10;-1.90;99.90
22442;DHT22;11388;54.456;9.752;2022-12-18T12:21:43;-2.00;99.90
22442;DHT22;11388;54.456;9.752;2022-12-18T12:30:20;-1.80;99.90
22442;DHT22;11388;54.456;9.752;2022-12-18T12:35:53;-1.70;99.90
22442;DHT22;11388;54.456;9.752;2022-12-18T12:38:35;-1.90;99.90
22442;DHT22;11388;54.456;9.752;2022-12-18T12:41:08;-1.90;99.90
22442;DHT22;11388;54.456;9.752;2022-12-18T12:43:58;-2.20;99.90
22442;DHT22;11388;54.456;9.752;2022-12-18T12:46:26;-2.10;99.90
22442;DHT22;11388;54.456;9.752;2022-12-18T12:49:04;-2.30;99.90
22442;DHT22;11388;54.456;9.752;2022-12-18T12:51:36;-2.20;99.90
22442;DHT22;11388;54.456;9.752;2022-12-18T12:54:06;-2.20;99.90
22442;DHT22;11388;54.456;9.752;2022-12-18T12:56:54;-2.10;99.90
22442;DHT22;11388;54.456;9.752;2022-12-18T13:02:30;-2.20;99.90
22442;DHT22;11388;54.456;9.752;2022-12-18T13:05:28;-2.20;99.90
22442;DHT22;11388;54.456;9.752;2022-12-18T13:08:03;-2.20;99.90
22442;DHT22;11388;54.456;9.752;2022-12-18T13:10:40;-2.20;99.90
22442;DHT22;11388;54.456;9.752;2022-12-18T13:15:44;-2.20;99.90
22442;DHT22;11388;54.456;9.752;2022-12-18T13:18:20;-2.20;99.90
22442;DHT22;11388;54.456;9.752;2022-12-18T13:21:01;-2.20;99.90
22442;DHT22;11388;54.456;9.752;2022-12-18T13:23:33;-2.10;99.90
22442;DHT22;11388;54.456;9.752;2022-12-18T13:28:52;-2.10;99.90
22442;DHT22;11388;54.456;9.752;2022-12-18T13:34:21;-2.30;99.90
22442;DHT22;11388;54.456;9.752;2022-12-18T13:36:49;-2.30;99.90
22442;DHT22;11388;54.456;9.752;2022-12-18T13:44:36;-2.40;99.90
22442;DHT22;11388;54.456;9.752;2022-12-18T13:47:04;-2.40;99.90
22442;DHT22;11388;54.456;9.752;2022-12-18T13:49:38;-2.40;99.90
22442;DHT22;11388;54.456;9.752;2022-12-18T13:52:20;-2.30;99.90
22442;DHT22;11388;54.456;9.752;2022-12-18T13:55:00;-2.30;99.90
22442;DHT22;11388;54.456;9.752;2022-12-18T13:57:37;-2.30;99.90
22442;DHT22;11388;54.456;9.752;2022-12-18T14:02:48;-2.40;99.90
22442;DHT22;11388;54.456;9.752;2022-12-18T14:05:32;-2.50;99.90
22442;DHT22;11388;54.456;9.752;2022-12-18T14:08:14;-2.50;99.90
22442;DHT22;11388;54.456;9.752;2022-12-18T14:10:45;-2.50;99.90
22442;DHT22;11388;54.456;9.752;2022-12-18T14:13:29;-2.50;99.90
22442;DHT22;11388;54.456;9.752;2022-12-18T14:15:56;-2.50;99.90
22442;DHT22;11388;54.456;9.752;2022-12-18T14:21:17;-2.50;99.90
22442;DHT22;11388;54.456;9.752;2022-12-18T14:23:43;-2.50;99.90
22442;DHT22;11388;54.456;9.752;2022-12-18T14:26:25;-2.50;99.90
22442;DHT22;11388;54.456;9.752;2022-12-18T14:28:53;-2.50;99.90
22442;DHT22;11388;54.456;9.752;2022-12-18T14:31:27;-2.50;99.90
22442;DHT22;11388;54.456;9.752;2022-12-18T14:33:53;-2.60;99.90
22442;DHT22;11388;54.456;9.752;2022-12-18T14:36:24;-2.50;99.90
22442;DHT22;11388;54.456;9.752;2022-12-18T14:38:52;-2.50;99.90
22442;DHT22;11388;54.456;9.752;2022-12-18T14:41:20;-2.50;99.90
22442;DHT22;11388;54.456;9.752;2022-12-18T14:44:12;-2.60;99.90
22442;DHT22;11388;54.456;9.752;2022-12-18T14:46:42;-2.70;99.90
22442;DHT22;11388;54.456;9.752;2022-12-18T14:49:33;-2.70;99.90
22442;DHT22;11388;54.456;9.752;2022-12-18T14:52:29;-2.70;99.90
22442;DHT22;11388;54.456;9.752;2022-12-18T14:54:56;-2.70;99.90
22442;DHT22;11388;54.456;9.752;2022-12-18T14:57:25;-2.70;99.90
22442;DHT22;11388;54.456;9.752;2022-12-18T14:59:52;-2.80;99.90
22442;DHT22;11388;54.456;9.752;2022-12-18T15:02:26;-2.70;99.90
22442;DHT22;11388;54.456;9.752;2022-12-18T15:05:17;-2.80;99.90
22442;DHT22;11388;54.456;9.752;2022-12-18T15:07:48;-2.70;99.90
22442;DHT22;11388;54.456;9.752;2022-12-18T15:10:17;-2.70;99.90
22442;DHT22;11388;54.456;9.752;2022-12-18T15:12:44;-2.70;99.90
22442;DHT22;11388;54.456;9.752;2022-12-18T15:18:03;-2.80;99.90
22442;DHT22;11388;54.456;9.752;2022-12-18T15:20:49;-2.90;99.90
22442;DHT22;11388;54.456;9.752;2022-12-18T15:23:35;-2.90;99.90
22442;DHT22;11388;54.456;9.752;2022-12-18T15:26:06;-2.90;99.90
22442;DHT22;11388;54.456;9.752;2022-12-18T15:34:09;-2.90;99.90
22442;DHT22;11388;54.456;9.752;2022-12-18T15:36:35;-2.90;99.90
22442;DHT22;11388;54.456;9.752;2022-12-18T15:39:02;-2.90;99.90
22442;DHT22;11388;54.456;9.752;2022-12-18T15:41:30;-2.90;99.90
22442;DHT22;11388;54.456;9.752;2022-12-18T15:43:56;-2.90;99.90
22442;DHT22;11388;54.456;9.752;2022-12-18T15:46:24;-3.00;99.90
22442;DHT22;11388;54.456;9.752;2022-12-18T15:48:57;-3.00;99.90
22442;DHT22;11388;54.456;9.752;2022-12-18T15:51:26;-2.90;99.90
22442;DHT22;11388;54.456;9.752;2022-12-18T15:53:55;-2.90;99.90
22442;DHT22;11388;54.456;9.752;2022-12-18T15:56:22;-2.90;99.90
22442;DHT22;11388;54.456;9.752;2022-12-18T15:59:15;-2.90;99.90
22442;DHT22;11388;54.456;9.752;2022-12-18T16:01:42;-3.00;99.90
22442;DHT22;11388;54.456;9.752;2022-12-18T16:04:13;-2.90;99.90
22442;DHT22;11388;54.456;9.752;2022-12-18T16:06:39;-3.00;99.90
22442;DHT22;11388;54.456;9.752;2022-12-18T16:09:06;-3.00;99.90
22442;DHT22;11388;54.456;9.752;2022-12-18T16:11:34;-3.00;99.90
22442;DHT22;11388;54.456;9.752;2022-12-18T16:16:38;-3.00;99.90
22442;DHT22;11388;54.456;9.752;2022-12-18T16:19:03;-3.00;99.90
22442;DHT22;11388;54.456;9.752;2022-12-18T16:21:29;-3.00;99.90
22442;DHT22;11388;54.456;9.752;2022-12-18T16:23:55;-3.00;99.90
22442;DHT22;11388;54.456;9.752;2022-12-18T16:26:20;-2.90;99.90
22442;DHT22;11388;54.456;9.752;2022-12-18T16:28:46;-2.90;99.90
22442;DHT22;11388;54.456;9.752;2022-12-18T16:31:12;-3.00;99.90
22442;DHT22;11388;54.456;9.752;2022-12-18T16:33:38;-3.00;99.90
22442;DHT22;11388;54.456;9.752;2022-12-18T16:36:03;-3.10;99.90
22442;DHT22;11388;54.456;9.752;2022-12-18T16:38:29;-3.20;99.90
22442;DHT22;11388;54.456;9.752;2022-12-18T16:40:55;-3.00;99.90
22442;DHT22;11388;54.456;9.752;2022-12-18T16:43:49;-3.00;99.90
22442;DHT22;11388;54.456;9.752;2022-12-18T16:46:15;-3.10;99.90
22442;DHT22;11388;54.456;9.752;2022-12-18T16:48:40;-3.00;99.90
22442;DHT22;11388;54.456;9.752;2022-12-18T16:51:06;-3.10;99.90
22442;DHT22;11388;54.456;9.752;2022-12-18T16:53:32;-3.10;99.90
22442;DHT22;11388;54.456;9.752;2022-12-18T16:55:58;-3.10;99.90
22442;DHT22;11388;54.456;9.752;2022-12-18T16:58:24;-3.10;99.90
22442;DHT22;11388;54.456;9.752;2022-12-18T17:00:53;-3.10;99.90
22442;DHT22;11388;54.456;9.752;2022-12-18T17:03:18;-3.00;99.90
22442;DHT22;11388;54.456;9.752;2022-12-18T17:05:44;-3.00;99.90
22442;DHT22;11388;54.456;9.752;2022-12-18T17:08:12;-3.10;99.90
22442;DHT22;11388;54.456;9.752;2022-12-18T17:10:38;-3.10;99.90
22442;DHT22;11388;54.456;9.752;2022-12-18T17:13:04;-3.20;99.90
22442;DHT22;11388;54.456;9.752;2022-12-18T17:15:29;-3.20;99.90
22442;DHT22;11388;54.456;9.752;2022-12-18T17:17:55;-3.30;99.90
22442;DHT22;11388;54.456;9.752;2022-12-18T17:20:21;-3.20;99.90
22442;DHT22;11388;54.456;9.752;2022-12-18T17:22:47;-3.20;99.90
22442;DHT22;11388;54.456;9.752;2022-12-18T17:25:13;-3.30;99.90
22442;DHT22;11388;54.456;9.752;2022-12-18T17:27:39;-3.30;99.90
22442;DHT22;11388;54.456;9.752;2022-12-18T17:30:06;-3.30;99.90
22442;DHT22;11388;54.456;9.752;2022-12-18T17:32:31;-3.30;99.90